Temp: 2.3°C   Baro: 1026.9mb
  Wind: 0.0mph   Dir: ESE (123°)
  Rain: 0.0mm (0.0mm/hr)
  Solar: 98W/m2  Hum: 97%

Historic data

Bath Spa Weather Station Historical Data
Daily Summary for October 01, 2022 Units:  English    Metric   Both
Daily Weekly Monthly Yearly Custom
  High: Low: Average:
Temperature: 64 °F 54 °F 58.3 °F
Dew Point: 55.6 °F 50.8 °F 53.2 °F
Humidity: 91% 71% 84%
Wind Speed: 15mph 0.4mph 5.9mph
Wind Gust: 23mph - -
Wind- - West
Pressure: 29.98 in 29.55 in -
Precipitation: 0.07 in    
Historical Graphs
 
 
Tabular Data for October 01, 2022
Time Temperature Dew Point Pressure Wind Wind Speed Wind Gust Humidity Rainfall Rate (Hourly) solar
00:09 57.1 °F 54.6 °F 29.55 in West 5.2 mph 10 mph 91% 0.00 in 0 W/m2
00:14 57.2 °F 54.7 °F 29.55 in West 5 mph 12 mph 91% 0.00 in 0 W/m2
00:19 57.1 °F 54.6 °F 29.56 in WNW 4.8 mph 10 mph 91% 0.00 in 0 W/m2
00:24 57 °F 54.5 °F 29.56 in WNW 4.4 mph 9 mph 91% 0.00 in 0 W/m2
00:29 56.9 °F 54.4 °F 29.56 in West 4 mph 7 mph 91% 0.00 in 0 W/m2
00:34 56.8 °F 54.3 °F 29.56 in West 4.2 mph 8 mph 91% 0.00 in 0 W/m2
00:39 56.8 °F 54.3 °F 29.56 in West 5.7 mph 8 mph 91% 0.00 in 0 W/m2
00:44 56.7 °F 54.2 °F 29.56 in West 4 mph 8 mph 91% 0.00 in 0 W/m2
00:49 56.7 °F 54.1 °F 29.57 in West 3.7 mph 7 mph 91% 0.00 in 0 W/m2
00:54 56.7 °F 54.1 °F 29.57 in West 5.2 mph 11 mph 91% 0.00 in 0 W/m2
00:59 56.8 °F 54.2 °F 29.57 in West 5.6 mph 9 mph 91% 0.00 in 0 W/m2
01:04 56.8 °F 54.3 °F 29.57 in West 4.4 mph 8 mph 91% 0.00 in 0 W/m2
01:09 56.8 °F 54.3 °F 29.56 in West 4.1 mph 8 mph 91% 0.00 in 0 W/m2
01:14 56.9 °F 54.4 °F 29.57 in West 4.4 mph 11 mph 91% 0.00 in 0 W/m2
01:19 57 °F 54.5 °F 29.57 in West 5.3 mph 9 mph 91% 0.00 in 0 W/m2
01:24 57 °F 54.5 °F 29.57 in West 6.1 mph 13 mph 91% 0.00 in 0 W/m2
01:29 57 °F 54.5 °F 29.57 in West 7.6 mph 13 mph 91% 0.00 in 0 W/m2
01:34 57 °F 54.1 °F 29.58 in West 5.2 mph 15 mph 90% 0.00 in 0 W/m2
01:39 56.8 °F 53.8 °F 29.58 in WNW 9.8 mph 18 mph 89.4% 0.00 in 0 W/m2
01:44 56.8 °F 53.4 °F 29.58 in West 8 mph 18 mph 88.6% 0.00 in 0 W/m2
01:49 56.7 °F 53.1 °F 29.58 in West 6.4 mph 11 mph 87.8% 0.00 in 0 W/m2
01:54 56.6 °F 52.8 °F 29.58 in West 5.3 mph 10 mph 87% 0.00 in 0 W/m2
01:57 56.5 °F 52.7 °F 29.58 in WNW 5 mph 9 mph 87% 0.00 in 0 W/m2
02:04 56.5 °F 52.7 °F 29.59 in West 4.8 mph 13 mph 87% 0.00 in 0 W/m2
02:14 56.5 °F 52.7 °F 29.59 in West 6 mph 10 mph 87% 0.00 in 0 W/m2
02:19 56.3 °F 52.5 °F 29.59 in West 4.8 mph 10 mph 87% 0.00 in 0 W/m2
02:24 56.2 °F 52.4 °F 29.59 in West 7.4 mph 10 mph 87% 0.00 in 0 W/m2
02:29 56.5 °F 52.7 °F 29.59 in West 6 mph 13 mph 87% 0.00 in 0 W/m2
02:34 56.6 °F 52.8 °F 29.58 in West 7.6 mph 13 mph 87% 0.00 in 0 W/m2
02:39 56.7 °F 52.9 °F 29.59 in West 5.1 mph 11 mph 87% 0.00 in 0 W/m2
02:44 56.5 °F 52.7 °F 29.59 in West 5.8 mph 11 mph 87% 0.00 in 0 W/m2
02:49 56.3 °F 52.5 °F 29.59 in West 5.8 mph 10 mph 87% 0.00 in 0 W/m2
02:54 56.3 °F 52.8 °F 29.59 in West 7 mph 10 mph 87.8% 0.00 in 0 W/m2
02:59 56.3 °F 52.9 °F 29.59 in West 6.4 mph 9 mph 88% 0.00 in 0 W/m2
03:04 56.3 °F 52.9 °F 29.59 in West 6.4 mph 11 mph 88% 0.00 in 0 W/m2
03:09 56.3 °F 52.9 °F 29.59 in West 6.6 mph 11 mph 88% 0.00 in 0 W/m2
03:14 56.2 °F 52.8 °F 29.59 in WSW 6.8 mph 10 mph 88% 0.00 in 0 W/m2
03:19 56.1 °F 52.7 °F 29.59 in West 5.1 mph 11 mph 88% 0.00 in 0 W/m2
03:24 56.4 °F 52.9 °F 29.59 in West 5.6 mph 14 mph 88% 0.00 in 0 W/m2
03:29 56.6 °F 53 °F 29.60 in West 7.2 mph 12 mph 88% 0.00 in 0 W/m2
03:34 56.7 °F 53.1 °F 29.60 in West 8.6 mph 15 mph 88% 0.00 in 0 W/m2
03:39 56.7 °F 53.1 °F 29.60 in West 5 mph 15 mph 88% 0.00 in 0 W/m2
03:44 56.6 °F 53 °F 29.61 in West 6.2 mph 12 mph 88% 0.00 in 0 W/m2
03:49 56.5 °F 52.9 °F 29.61 in West 5.4 mph 12 mph 88% 0.00 in 0 W/m2
03:54 56.5 °F 52.9 °F 29.61 in WSW 6.8 mph 12 mph 88% 0.00 in 0 W/m2
03:59 56.4 °F 52.9 °F 29.61 in West 6.4 mph 15 mph 88% 0.00 in 0 W/m2
04:04 56.5 °F 52.9 °F 29.61 in West 6.2 mph 13 mph 87.8% 0.00 in 0 W/m2
04:09 56.5 °F 52.7 °F 29.61 in West 5.8 mph 14 mph 87.2% 0.00 in 0 W/m2
04:14 56.4 °F 52.6 °F 29.61 in WNW 4.5 mph 10 mph 87% 0.00 in 0 W/m2
04:19 56.1 °F 52.3 °F 29.62 in West 5 mph 10 mph 87% 0.00 in 0 W/m2
04:24 56 °F 52.4 °F 29.61 in West 5.2 mph 9 mph 87.6% 0.00 in 0 W/m2
04:29 55.8 °F 52.2 °F 29.62 in West 5 mph 11 mph 87.4% 0.00 in 0 W/m2
04:34 55.8 °F 52.2 °F 29.62 in West 4.1 mph 10 mph 87.8% 0.00 in 0 W/m2
04:39 55.8 °F 52.3 °F 29.62 in West 3.3 mph 9 mph 88% 0.00 in 0 W/m2
04:44 55.6 °F 52.2 °F 29.62 in West 5.1 mph 9 mph 88% 0.00 in 0 W/m2
04:49 55.5 °F 52.1 °F 29.62 in WNW 2.9 mph 9 mph 88% 0.00 in 0 W/m2
04:54 55.2 °F 51.8 °F 29.62 in WNW 5.4 mph 9 mph 88% 0.00 in 0 W/m2
04:59 55.2 °F 51.8 °F 29.62 in NW 4.1 mph 7 mph 88% 0.00 in 0 W/m2
05:04 55 °F 51.6 °F 29.62 in WNW 3.8 mph 7 mph 88% 0.00 in 0 W/m2
05:09 55 °F 51.7 °F 29.63 in NW 3.2 mph 6 mph 88.6% 0.00 in 0 W/m2
05:14 55 °F 51.8 °F 29.63 in NW 2 mph 7 mph 89% 0.00 in 0 W/m2
05:19 54.9 °F 51.7 °F 29.63 in WNW 2.5 mph 4 mph 89% 0.00 in 0 W/m2
05:24 54.9 °F 51.6 °F 29.64 in WNW 2 mph 5 mph 89% 0.00 in 0 W/m2
05:29 55 °F 51.8 °F 29.64 in NW 2.4 mph 8 mph 89% 0.00 in 0 W/m2
05:34 55 °F 51.8 °F 29.64 in WNW 2.2 mph 5 mph 89% 0.00 in 0 W/m2
05:39 55 °F 51.8 °F 29.64 in NW 2.8 mph 5 mph 89% 0.00 in 0 W/m2
05:44 54.9 °F 51.6 °F 29.64 in WNW 1.9 mph 6 mph 89% 0.00 in 0 W/m2
05:49 54.9 °F 51.6 °F 29.65 in WNW 2.4 mph 4 mph 89% 0.00 in 0 W/m2
05:54 54.8 °F 51.5 °F 29.65 in WNW 2.6 mph 4 mph 89% 0.00 in 0 W/m2
05:59 54.7 °F 51.4 °F 29.65 in West 3 mph 9 mph 89% 0.00 in 0 W/m2
06:04 54.9 °F 51.6 °F 29.65 in West 3.2 mph 7 mph 89% 0.00 in 0 W/m2
06:09 54.8 °F 51.5 °F 29.65 in WNW 3 mph 6 mph 89% 0.00 in 0 W/m2
06:14 54.8 °F 51.5 °F 29.65 in NW 3.1 mph 6 mph 89% 0.00 in 0 W/m2
06:19 54.7 °F 51.4 °F 29.66 in West 2.5 mph 5 mph 89% 0.00 in 0 W/m2
06:24 54.7 °F 51.4 °F 29.66 in West 1 mph 4 mph 89% 0.00 in 0 W/m2
06:29 54.7 °F 51.4 °F 29.66 in West 3.3 mph 6 mph 89% 0.00 in 0 W/m2
06:34 54.7 °F 51.4 °F 29.66 in West 2.8 mph 7 mph 89% 0.00 in 0 W/m2
06:39 54.7 °F 51.4 °F 29.66 in WNW 2.5 mph 7 mph 89% 0.00 in 0 W/m2
06:44 54.7 °F 51.4 °F 29.67 in WSW 3.7 mph 9 mph 89% 0.00 in 0 W/m2
06:49 54.9 °F 51.6 °F 29.67 in West 4.8 mph 12 mph 89% 0.00 in 0 W/m2
06:54 54.9 °F 51.7 °F 29.67 in WNW 3.7 mph 12 mph 89% 0.00 in 0 W/m2
06:59 54.8 °F 51.5 °F 29.67 in West 2.7 mph 6 mph 89% 0.00 in 0 W/m2
07:04 54.7 °F 51.4 °F 29.68 in WNW 2.1 mph 6 mph 88.8% 0.00 in 0 W/m2
07:09 54.6 °F 51.2 °F 29.68 in WNW 2.9 mph 6 mph 88% 0.00 in 0 W/m2
07:14 54.5 °F 51.1 °F 29.68 in West 2.3 mph 6 mph 88.2% 0.00 in 5 W/m2
07:19 54.4 °F 51.1 °F 29.68 in WNW 2.8 mph 6 mph 88.4% 0.00 in 7 W/m2
07:24 54.3 °F 51.1 °F 29.69 in WNW 3.1 mph 8 mph 89% 0.00 in 9 W/m2
07:29 54.3 °F 51.1 °F 29.69 in West 2.6 mph 5 mph 89% 0.00 in 11 W/m2
07:34 54.3 °F 51.1 °F 29.69 in West 1.6 mph 4 mph 89% 0.00 in 12 W/m2
07:39 54.1 °F 50.9 °F 29.69 in West 2 mph 4 mph 89% 0.00 in 18 W/m2
07:43 54.1 °F 50.9 °F 29.69 in West 1.4 mph 5 mph 89% 0.00 in 18 W/m2
07:49 54.1 °F 50.9 °F 29.70 in West 0.4 mph 2 mph 89% 0.00 in 19 W/m2
07:54 54.1 °F 50.9 °F 29.70 in West 1 mph 4 mph 89% 0.00 in 30 W/m2
07:59 54.1 °F 50.8 °F 29.70 in West 2 mph 4 mph 89% 0.00 in 46 W/m2
08:04 54 °F 50.8 °F 29.70 in WNW 2.6 mph 5 mph 89% 0.00 in 60 W/m2
08:09 54.1 °F 50.9 °F 29.71 in WNW 2 mph 4 mph 89% 0.00 in 62 W/m2
08:14 54.3 °F 51.1 °F 29.71 in WNW 1.2 mph 3 mph 89% 0.00 in 65 W/m2
08:19 54.3 °F 51.1 °F 29.71 in WNW 1.6 mph 3 mph 89% 0.00 in 69 W/m2
08:24 54.5 °F 51.3 °F 29.71 in WNW 2.6 mph 4 mph 89% 0.00 in 79 W/m2
08:29 54.7 °F 51.4 °F 29.71 in West 1.7 mph 5 mph 89% 0.00 in 83 W/m2
08:34 55 °F 51.7 °F 29.72 in WSW 2.9 mph 6 mph 89% 0.00 in 86 W/m2
08:39 55.1 °F 51.9 °F 29.72 in West 3.3 mph 8 mph 89% 0.00 in 84 W/m2
08:44 55.5 °F 52.3 °F 29.72 in West 6 mph 10 mph 89% 0.00 in 97 W/m2
08:49 55.7 °F 52.4 °F 29.72 in West 4.8 mph 11 mph 89% 0.00 in 109 W/m2
08:54 56 °F 52.7 °F 29.73 in West 5.7 mph 10 mph 88.8% 0.00 in 121 W/m2
08:59 56.2 °F 52.8 °F 29.73 in West 6.5 mph 13 mph 88% 0.00 in 128 W/m2
09:04 56.6 °F 52.9 °F 29.73 in West 6.4 mph 13 mph 87.4% 0.00 in 130 W/m2
09:09 56.7 °F 52.9 °F 29.73 in WNW 5.2 mph 10 mph 87% 0.00 in 176 W/m2
09:14 56.9 °F 52.9 °F 29.73 in West 5.5 mph 11 mph 86.2% 0.00 in 229 W/m2
09:19 57.4 °F 53.2 °F 29.73 in West 8.6 mph 16 mph 85.8% 0.00 in 230 W/m2
09:24 57.8 °F 53.2 °F 29.74 in WNW 9.2 mph 14 mph 84.6% 0.00 in 236 W/m2
09:29 58.3 °F 53.4 °F 29.74 in WNW 4.7 mph 11 mph 84% 0.00 in 255 W/m2
09:34 58.6 °F 53.4 °F 29.74 in West 6.9 mph 12 mph 83.2% 0.00 in 295 W/m2
09:39 58.6 °F 53.2 °F 29.74 in WSW 9.5 mph 16 mph 82% 0.00 in 227 W/m2
09:44 58.6 °F 52.9 °F 29.74 in West 8.2 mph 15 mph 81.2% 0.00 in 174 W/m2
09:49 58.5 °F 52.8 °F 29.75 in West 5.9 mph 14 mph 81.2% 0.00 in 218 W/m2
09:54 58.5 °F 53 °F 29.75 in West 9.3 mph 18 mph 81.8% 0.00 in 302 W/m2
09:59 58.6 °F 53.2 °F 29.75 in WSW 6.8 mph 19 mph 82% 0.00 in 294 W/m2
10:04 58.7 °F 53.2 °F 29.76 in West 9.6 mph 18 mph 81.6% 0.00 in 153 W/m2
10:09 58.5 °F 53.1 °F 29.76 in West 9 mph 18 mph 82% 0.00 in 135 W/m2
10:14 58.2 °F 52.8 °F 29.76 in West 6.6 mph 15 mph 82% 0.00 in 181 W/m2
10:19 58.1 °F 52.9 °F 29.76 in West 5.1 mph 15 mph 82.8% 0.00 in 206 W/m2
10:24 58.3 °F 53.3 °F 29.76 in West 4.1 mph 8 mph 83.8% 0.00 in 220 W/m2
10:29 58.3 °F 53.4 °F 29.76 in WNW 5.2 mph 13 mph 84% 0.00 in 220 W/m2
10:34 58.2 °F 53.5 °F 29.76 in West 7 mph 13 mph 84.4% 0.00 in 220 W/m2
10:39 58.3 °F 53.8 °F 29.77 in West 5.4 mph 10 mph 85% 0.00 in 225 W/m2
10:44 58.5 °F 54 °F 29.77 in WSW 6.2 mph 13 mph 85% 0.00 in 234 W/m2
10:49 58.6 °F 54.1 °F 29.77 in West 6.6 mph 15 mph 85% 0.00 in 243 W/m2
10:54 58.7 °F 54.2 °F 29.77 in West 6.7 mph 12 mph 85% 0.00 in 243 W/m2
10:59 58.8 °F 54.3 °F 29.77 in West 8.2 mph 15 mph 85% 0.00 in 251 W/m2
11:04 58.9 °F 54.4 °F 29.78 in West 9.4 mph 18 mph 85% 0.00 in 264 W/m2
11:09 59.2 °F 54.7 °F 29.78 in West 7.1 mph 17 mph 85% 0.00 in 248 W/m2
11:14 59.4 °F 54.9 °F 29.78 in West 7.2 mph 16 mph 85% 0.00 in 322 W/m2
11:19 59.6 °F 55.1 °F 29.78 in WNW 6 mph 13 mph 85% 0.00 in 411 W/m2
11:24 60 °F 55.1 °F 29.78 in WSW 7 mph 17 mph 84% 0.00 in 666 W/m2
11:29 60.5 °F 55.4 °F 29.78 in West 10.7 mph 16 mph 83.2% 0.00 in 666 W/m2
11:34 61.1 °F 55.6 °F 29.79 in WSW 8.5 mph 13 mph 82.2% 0.00 in 434 W/m2
11:38 61.2 °F 55.2 °F 29.78 in West 6.3 mph 16 mph 81% 0.00 in 429 W/m2
11:44 61.3 °F 55.1 °F 29.79 in West 7.5 mph 15 mph 80.2% 0.00 in 352 W/m2
11:49 61.5 °F 55 °F 29.79 in West 7 mph 15 mph 79.4% 0.00 in 513 W/m2
11:54 61.7 °F 55.1 °F 29.79 in WNW 6.2 mph 14 mph 79% 0.00 in 513 W/m2
11:59 61.5 °F 54.9 °F 29.79 in WNW 8.2 mph 14 mph 79% 0.00 in 381 W/m2
12:04 61.3 °F 54.9 °F 29.79 in West 10.1 mph 16 mph 79% 0.00 in 406 W/m2
12:09 61.7 °F 54.8 °F 29.80 in West 7.8 mph 16 mph 78% 0.00 in 715 W/m2
12:14 62.2 °F 54.1 °F 29.80 in West 12.4 mph 19 mph 75% 0.00 in 705 W/m2
12:19 61.9 °F 53.2 °F 29.80 in West 9.4 mph 19 mph 73.2% 0.00 in 657 W/m2
12:24 62.2 °F 53.8 °F 29.80 in West 7.8 mph 17 mph 74% 0.00 in 652 W/m2
12:29 62.8 °F 54 °F 29.80 in West 10.6 mph 19 mph 73% 0.00 in 670 W/m2
12:34 63.3 °F 54.1 °F 29.80 in WSW 10.4 mph 19 mph 72% 0.00 in 715 W/m2
12:39 63.7 °F 54.5 °F 29.80 in West 8.4 mph 19 mph 72% 0.00 in 700 W/m2
12:44 64 °F 54.4 °F 29.80 in WSW 11 mph 18 mph 71% 0.00 in 707 W/m2
12:49 63.3 °F 54 °F 29.81 in WSW 14.5 mph 23 mph 71.6% 0.00 in 686 W/m2
12:54 62.8 °F 54 °F 29.81 in WSW 11.6 mph 18 mph 73% 0.00 in 619 W/m2
12:58 61.9 °F 53.3 °F 29.82 in WSW 15 mph 21 mph 73.8% 0.00 in 594 W/m2
13:04 61.6 °F 53.8 °F 29.82 in West 7.1 mph 17 mph 75.4% 0.00 in 668 W/m2
13:09 61.9 °F 54.3 °F 29.82 in West 7.4 mph 13 mph 76% 0.00 in 380 W/m2
13:14 61.7 °F 54.1 °F 29.82 in West 9.8 mph 21 mph 76% 0.00 in 571 W/m2
13:19 62.1 °F 54.4 °F 29.82 in West 9.8 mph 16 mph 76% 0.00 in 527 W/m2
13:24 61.8 °F 54.1 °F 29.82 in West 14 mph 20 mph 75.8% 0.00 in 434 W/m2
13:29 60.9 °F 53.4 °F 29.83 in West 8.6 mph 18 mph 76.2% 0.00 in 301 W/m2
13:34 61.1 °F 53.9 °F 29.83 in West 8.2 mph 15 mph 77% 0.00 in 499 W/m2
13:39 61.4 °F 54.2 °F 29.83 in WSW 5.2 mph 12 mph 77% 0.00 in 315 W/m2
13:44 61.9 °F 54.7 °F 29.83 in WNW 5.1 mph 15 mph 77% 0.00 in 248 W/m2
13:49 61.7 °F 54.5 °F 29.83 in WNW 10.5 mph 19 mph 77% 0.00 in 246 W/m2
13:54 61.2 °F 54 °F 29.83 in West 13.4 mph 20 mph 77% 0.00 in 204 W/m2
13:59 61 °F 53.8 °F 29.83 in West 5.8 mph 14 mph 77% 0.00 in 253 W/m2
14:04 61.2 °F 54 °F 29.83 in West 5.8 mph 15 mph 77% 0.00 in 257 W/m2
14:09 61.4 °F 54.2 °F 29.84 in West 8 mph 13 mph 77% 0.00 in 248 W/m2
14:14 61.5 °F 54.3 °F 29.84 in West 7.8 mph 14 mph 77% 0.00 in 160 W/m2
14:19 61.5 °F 54.3 °F 29.84 in West 7.2 mph 15 mph 77% 0.00 in 206 W/m2
14:24 61.6 °F 54.4 °F 29.84 in West 7.8 mph 18 mph 77% 0.00 in 188 W/m2
14:29 61.7 °F 54.4 °F 29.84 in West 8 mph 17 mph 76.8% 0.00 in 183 W/m2
14:34 61.8 °F 54.2 °F 29.84 in WSW 9.8 mph 17 mph 76% 0.00 in 188 W/m2
14:39 61.9 °F 54.2 °F 29.84 in West 10.3 mph 16 mph 75.8% 0.00 in 232 W/m2
14:44 62.2 °F 54 °F 29.84 in West 7.1 mph 16 mph 74.8% 0.00 in 262 W/m2
14:49 62.2 °F 53.7 °F 29.85 in West 11.8 mph 17 mph 74% 0.00 in 272 W/m2
14:54 62.1 °F 53.6 °F 29.85 in WNW 11.1 mph 23 mph 74% 0.00 in 338 W/m2
14:59 61.9 °F 53.7 °F 29.85 in West 10.6 mph 21 mph 74.6% 0.00 in 146 W/m2
15:04 61.5 °F 53.7 °F 29.85 in West 8.8 mph 17 mph 75.2% 0.00 in 100 W/m2
15:09 61.3 °F 53.9 °F 29.85 in West 9.1 mph 19 mph 76.2% 0.00 in 181 W/m2
15:14 61.3 °F 54.1 °F 29.85 in WSW 7.4 mph 15 mph 77% 0.00 in 193 W/m2
15:19 61.5 °F 54.3 °F 29.85 in West 7.7 mph 16 mph 77% 0.00 in 156 W/m2
15:24 61.3 °F 53.9 °F 29.85 in WNW 7.3 mph 14 mph 76.2% 0.00 in 287 W/m2
15:29 61.5 °F 54 °F 29.85 in West 6.7 mph 15 mph 76% 0.00 in 183 W/m2
15:34 62 °F 54.3 °F 29.85 in West 5.8 mph 10 mph 76% 0.00 in 279 W/m2
15:39 62.3 °F 54 °F 29.85 in West 10.2 mph 16 mph 74.4% 0.00 in 227 W/m2
15:44 62.6 °F 54.1 °F 29.86 in WSW 7.8 mph 15 mph 74% 0.00 in 269 W/m2
15:49 62.8 °F 54.1 °F 29.86 in WSW 11.6 mph 20 mph 73.4% 0.00 in 315 W/m2
15:54 62.7 °F 53.7 °F 29.86 in WSW 13.2 mph 20 mph 72.4% 0.00 in 325 W/m2
15:59 63.1 °F 53.9 °F 29.87 in West 11.8 mph 23 mph 72% 0.00 in 545 W/m2
16:04 62.8 °F 53.6 °F 29.87 in West 10.6 mph 19 mph 72% 0.00 in 244 W/m2
16:09 62.8 °F 53.6 °F 29.87 in West 10.9 mph 22 mph 72% 0.00 in 309 W/m2
16:14 62.2 °F 53.2 °F 29.87 in West 9.6 mph 22 mph 72.4% 0.00 in 193 W/m2
16:19 62.2 °F 53.6 °F 29.87 in West 7.6 mph 13 mph 73.6% 0.00 in 169 W/m2
16:24 62.2 °F 53.6 °F 29.87 in West 10.9 mph 20 mph 73.8% 0.00 in 165 W/m2
16:29 61.7 °F 53.1 °F 29.87 in West 11.4 mph 21 mph 73.4% 0.00 in 121 W/m2
16:34 61.5 °F 53.2 °F 29.87 in West 8.2 mph 18 mph 74% 0.00 in 174 W/m2
16:39 61.7 °F 53.3 °F 29.87 in West 9.3 mph 14 mph 74.3% 0.00 in 181 W/m2
16:44 61.9 °F 53.7 °F 29.87 in West 9.5 mph 16 mph 74.8% 0.00 in 302 W/m2
16:49 62.1 °F 53.9 °F 29.87 in WSW 10.3 mph 18 mph 74.8% 0.00 in 339 W/m2
16:54 62.2 °F 53.8 °F 29.88 in West 6.4 mph 18 mph 74% 0.00 in 269 W/m2
16:59 62.1 °F 53.6 °F 29.88 in WSW 10 mph 17 mph 74% 0.00 in 98 W/m2
17:04 61.7 °F 53.7 °F 29.88 in West 11.3 mph 17 mph 75% 0.00 in 167 W/m2
17:09 61.5 °F 53.7 °F 29.88 in West 10.4 mph 15 mph 75.2% 0.00 in 234 W/m2
17:14 61.8 °F 54 °F 29.88 in West 5.7 mph 13 mph 75.4% 0.00 in 227 W/m2
17:19 61.9 °F 53.8 °F 29.88 in West 7.6 mph 14 mph 75% 0.00 in 237 W/m2
17:24 61.4 °F 53.5 °F 29.88 in West 12.2 mph 15 mph 75% 0.00 in 121 W/m2
17:29 61.3 °F 53.8 °F 29.88 in West 6.4 mph 15 mph 76% 0.00 in 135 W/m2
17:34 61.3 °F 53.8 °F 29.88 in West 6.4 mph 14 mph 76.2% 0.00 in 104 W/m2
17:39 61.2 °F 54 °F 29.88 in West 6 mph 14 mph 77% 0.00 in 107 W/m2
17:44 61.2 °F 54 °F 29.89 in West 8 mph 17 mph 77% 0.00 in 84 W/m2
17:49 61 °F 53.8 °F 29.89 in West 7.6 mph 14 mph 77% 0.00 in 76 W/m2
17:54 61 °F 53.8 °F 29.88 in West 7.6 mph 14 mph 77% 0.00 in 67 W/m2
17:59 61 °F 53.8 °F 29.89 in West 6.6 mph 14 mph 77% 0.00 in 46 W/m2
18:04 61 °F 53.8 °F 29.89 in West 9.6 mph 16 mph 77% 0.00 in 47 W/m2
18:09 60.8 °F 53.6 °F 29.90 in West 8 mph 13 mph 77% 0.00 in 37 W/m2
18:14 60.7 °F 53.5 °F 29.90 in West 5.4 mph 10 mph 77% 0.00 in 35 W/m2
18:19 60.6 °F 53.4 °F 29.90 in WSW 7 mph 16 mph 77% 0.00 in 35 W/m2
18:24 60.4 °F 53.4 °F 29.89 in West 6 mph 13 mph 77.6% 0.00 in 33 W/m2
18:29 60.4 °F 53.5 °F 29.90 in West 7.3 mph 12 mph 78% 0.00 in 18 W/m2
18:34 60.3 °F 53.3 °F 29.91 in WSW 7.7 mph 10 mph 77.6% 0.00 in 11 W/m2
18:39 60.2 °F 53.3 °F 29.91 in West 5.8 mph 10 mph 78% 0.00 in 5 W/m2
18:44 60.1 °F 53.2 °F 29.91 in West 5.6 mph 12 mph 78% 0.00 in 0 W/m2
18:49 60.1 °F 53.2 °F 29.91 in WSW 5 mph 15 mph 78% 0.00 in 0 W/m2
18:54 60.1 °F 53.2 °F 29.91 in West 5.3 mph 10 mph 78% 0.00 in 0 W/m2
18:59 59.9 °F 53.1 °F 29.91 in WSW 9.4 mph 18 mph 78% 0.00 in 0 W/m2
19:04 59.8 °F 53 °F 29.91 in West 6.8 mph 16 mph 78% 0.00 in 0 W/m2
19:09 59.7 °F 52.9 °F 29.91 in West 6.2 mph 13 mph 78% 0.00 in 0 W/m2
19:14 59.5 °F 53 °F 29.92 in West 4.7 mph 10 mph 78.8% 0.00 in 0 W/m2
19:19 59.5 °F 53.1 °F 29.92 in West 4.6 mph 10 mph 79% 0.00 in 0 W/m2
19:24 59.4 °F 52.9 °F 29.92 in WSW 7.2 mph 11 mph 79% 0.00 in 0 W/m2
19:29 59.4 °F 53 °F 29.92 in WSW 6.6 mph 15 mph 79.2% 0.00 in 0 W/m2
19:34 59.1 °F 53.1 °F 29.92 in West 7 mph 15 mph 80.2% 0.00 in 0 W/m2
19:39 58.7 °F 53.1 °F 29.92 in West 7.4 mph 12 mph 81.2% 0.00 in 0 W/m2
19:44 58.6 °F 53.2 °F 29.92 in West 4.1 mph 12 mph 82% 0.00 in 0 W/m2
19:49 58.6 °F 53.2 °F 29.93 in West 6.3 mph 11 mph 82% 0.00 in 0 W/m2
19:54 58.6 °F 53.2 °F 29.93 in West 7.4 mph 14 mph 82% 0.00 in 0 W/m2
19:59 58.8 °F 53.4 °F 29.93 in West 5.1 mph 13 mph 82% 0.00 in 0 W/m2
20:04 58.8 °F 53.4 °F 29.93 in West 5.8 mph 12 mph 82% 0.00 in 0 W/m2
20:09 58.8 °F 53.6 °F 29.93 in WNW 5.8 mph 12 mph 82.8% 0.00 in 0 W/m2
20:14 58.8 °F 53.6 °F 29.93 in West 5.7 mph 10 mph 83% 0.00 in 0 W/m2
20:19 58.8 °F 53.6 °F 29.93 in West 6 mph 12 mph 83% 0.00 in 0 W/m2
20:24 58.8 °F 53.6 °F 29.93 in West 4.6 mph 9 mph 83% 0.00 in 0 W/m2
20:29 58.8 °F 53.6 °F 29.93 in West 5.3 mph 8 mph 83% 0.00 in 0 W/m2
20:34 58.8 °F 53.6 °F 29.94 in West 5.5 mph 9 mph 83% 0.00 in 0 W/m2
20:39 58.8 °F 53.6 °F 29.94 in WSW 4.5 mph 9 mph 83% 0.00 in 0 W/m2
20:44 58.7 °F 53.5 °F 29.94 in WSW 3.6 mph 7 mph 83% 0.00 in 0 W/m2
20:49 58.6 °F 53.4 °F 29.94 in WSW 3.9 mph 8 mph 83% 0.00 in 0 W/m2
20:54 58.4 °F 53.4 °F 29.95 in WSW 2.4 mph 7 mph 83.8% 0.00 in 0 W/m2
20:59 58 °F 53.1 °F 29.95 in WSW 2.9 mph 6 mph 84% 0.00 in 0 W/m2
21:04 57.9 °F 53.3 °F 29.95 in SW 4 mph 6 mph 84.6% 0.00 in 0 W/m2
21:09 57.7 °F 53.2 °F 29.95 in WSW 2.8 mph 6 mph 85% 0.00 in 0 W/m2
21:14 57.6 °F 53.1 °F 29.95 in WSW 3.4 mph 7 mph 85% 0.00 in 0 W/m2
21:19 57.6 °F 53.3 °F 29.95 in West 2.8 mph 7 mph 85.8% 0.00 in 0 W/m2
21:24 57.4 °F 53.2 °F 29.95 in WSW 4.9 mph 7 mph 86% 0.00 in 0 W/m2
21:29 57.4 °F 53.2 °F 29.95 in WSW 3.2 mph 6 mph 86% 0.00 in 0 W/m2
21:34 57.4 °F 53.4 °F 29.95 in WSW 4.5 mph 9 mph 86.6% 0.00 in 0 W/m2
21:39 57.5 °F 53.7 °F 29.95 in WSW 7.8 mph 13 mph 87% 0.00 in 0 W/m2
21:44 57.5 °F 53.7 °F 29.95 in West 4.8 mph 7 mph 87% 0.00 in 0 W/m2
21:49 57.4 °F 53.6 °F 29.96 in West 2.9 mph 7 mph 87% 0.00 in 0 W/m2
21:53 57.4 °F 53.6 °F 29.96 in WSW 2.5 mph 4 mph 87% 0.00 in 0 W/m2
21:59 57.4 °F 53.6 °F 29.96 in WSW 2.6 mph 7 mph 87% 0.00 in 0 W/m2
22:04 57.4 °F 53.6 °F 29.96 in West 2.9 mph 7 mph 87% 0.00 in 0 W/m2
22:09 57.4 °F 53.6 °F 29.96 in WSW 3.2 mph 5 mph 87% 0.00 in 0 W/m2
22:14 57.4 °F 53.6 °F 29.96 in West 4.8 mph 10 mph 87% 0.00 in 0 W/m2
22:19 57.4 °F 53.6 °F 29.97 in West 5 mph 9 mph 87% 0.00 in 0 W/m2
22:24 57.4 °F 53.6 °F 29.97 in WSW 3.5 mph 7 mph 87% 0.00 in 0 W/m2
22:29 57.4 °F 53.6 °F 29.97 in WSW 3.2 mph 7 mph 87% 0.00 in 0 W/m2
22:34 57.2 °F 53.4 °F 29.97 in WSW 3.8 mph 8 mph 87% 0.01 in 0 W/m2
22:39 57 °F 53.2 °F 29.98 in WSW 4.4 mph 9 mph 87.2% 0.02 in 0 W/m2
22:44 56.8 °F 53.2 °F 29.98 in WSW 3.7 mph 7 mph 88% 0.02 in 0 W/m2
22:49 56.7 °F 53.1 °F 29.98 in WSW 3.2 mph 7 mph 88% 0.02 in 0 W/m2
22:54 56.6 °F 53 °F 29.98 in SW 4.2 mph 8 mph 88% 0.03 in 0 W/m2
22:59 56.5 °F 53.2 °F 29.98 in SW 4.2 mph 7 mph 89% 0.04 in 0 W/m2
23:04 56.3 °F 53.1 °F 29.98 in SW 3.3 mph 7 mph 89% 0.05 in 0 W/m2
23:09 56.1 °F 52.9 °F 29.98 in SW 3.9 mph 8 mph 89% 0.05 in 0 W/m2
23:14 56.1 °F 53.1 °F 29.98 in SW 2 mph 5 mph 89.6% 0.05 in 0 W/m2
23:19 56.1 °F 53.2 °F 29.98 in SW 4.5 mph 9 mph 90% 0.05 in 0 W/m2
23:24 56.1 °F 53.2 °F 29.98 in SW 2.8 mph 9 mph 90% 0.06 in 0 W/m2
23:29 56.1 °F 53.3 °F 29.98 in SW 1.2 mph 6 mph 90.2% 0.06 in 0 W/m2
23:34 56.1 °F 53.5 °F 29.98 in SW 1.7 mph 5 mph 90.8% 0.05 in 0 W/m2
23:39 55.9 °F 53.4 °F 29.98 in WSW 1.9 mph 4 mph 91% 0.06 in 0 W/m2
23:44 55.9 °F 53.4 °F 29.98 in WSW 1.9 mph 3 mph 91% 0.05 in 0 W/m2
23:49 55.9 °F 53.4 °F 29.98 in WSW 1.8 mph 4 mph 91% 0.05 in 0 W/m2
23:54 55.9 °F 53.4 °F 29.98 in West 1.3 mph 4 mph 91% 0.05 in 0 W/m2
23:59 55.9 °F 53.4 °F 29.98 in West 1.7 mph 3 mph 91% 0.03 in 0 W/m2
Bath Spa Weather
Compliments of Weather Underground - 2 mb